Tiempo atmosférico en la estación meteorológica de Sariñena, Depósito Agua, Huesca (302 m.)



Fecha
DESCASC
Temp. máxima en grados centígrados (hora)
DESCASC
Temp. mínima en grados centígrados (hora)
DESCASC
Temp. media en grados centígrados
DESCASC
Racha de viento máxima en m/sg (hora)
DESCASC
Velocidad máxima media en intervalos de 10 minutos(hora)
DESCASC
Precipitaciones diarias en mm
DESCASC
Precipitaciones de 00:00 a 06:00 en mm
DESCASC
Precipitaciones de 06:00 a 12:00 en mm
DESCASC
Precipitaciones de 12:00 a 18:00 en mm
DESCASC
Precipitaciones de 18:00 a 24:00 en mm
DESCASC
21-02-2019 17.4 (16:50) 0.1 (08:20) 8.7 3.06 (00:50) 2.22 (23:40) 0 0 0 0 0
20-02-2019 14.7 (16:20) -0.7 (08:00) 7 4.17 (13:20) 2.22 (13:40) 0 0 0 0 0
19-02-2019 14.9 (16:10) 0.1 (06:40) 7.5 5.28 (13:10) 2.78 (12:40) 0 0 0 0 0
18-02-2019 14.9 (16:30) -0.9 (07:50) 7 7.78 (12:40) 4.44 (12:40) 0 0 0 0 0
17-02-2019 16.7 (16:50) -2.4 (-00:0) 7.2 8.61 (20:40) 5.28 (18:20) 0 0 0 0 0
16-02-2019 16.3 (16:30) -1.2 (-00:0) 7.5 8.61 (17:00) 5.83 (17:00) 0 0 0 0 0
15-02-2019 14.2 (16:40) -1.9 (-00:0) 6.1 5 (13:20) 2.78 (14:20) 0 0 0 0 0
14-02-2019 15.1 (16:30) -0.4 (00:00) 7.4 8.33 (12:10) 5 (12:10) 0 0 0 0 0
13-02-2019 14.7 (16:40) -1.2 (-00:0) 6.7 4.72 (15:20) 2.5 (12:00) 0 0 0 0 0
12-02-2019 15.3 (17:20) -1.9 (-00:0) 6.7 4.17 (00:30) 2.5 (00:30) 0 0 0 0 0
11-02-2019 14.1 (16:00) 3.9 (00:00) 9 15.56 (04:30) 9.72 (04:30) 0 0 0 0 0
10-02-2019 16.3 (14:10) 2.3 (00:00) 9.3 12.5 (14:20) 7.22 (14:20) 0 0 0 0 0
09-02-2019 14.9 (15:30) 0.5 (00:00) 7.7 5 (16:20) 3.61 (16:40) 0 0 0 0 0
08-02-2019 14.6 (16:30) 0.2 (00:00) 7.4 6.94 (23:59) 3.89 (23:59) 0 0 0 0 0
07-02-2019 16.4 (15:30) 1.5 (00:00) 8.9 12.5 (16:50) 8.06 (16:30) 0 0 0 0 0
06-02-2019 14.2 (15:20) 0.9 (00:00) 7.5 4.44 (16:10) 3.06 (16:10) 0 0 0 0 0
05-02-2019 17.4 (16:00) 1.7 (00:00) 9.5 12.22 (16:50) 7.22 (16:50) 0 0 0 0 0
04-02-2019 13.3 (15:40) 1.1 (00:00) 7.2 9.17 (06:30) 5.83 (04:30) 0 0 0 0 0
03-02-2019 8.7 (14:30) 2 (00:00) 5.3 17.5 (15:00) 10.83 (04:50) 0 0 0 0 0
02-02-2019 8.1 (14:10) 2.4 (00:00) 5.3 21.11 (12:00) 13.33 (12:00) 0.2 0 0.2 0 0
01-02-2019 14.1 (15:10) 5.3 (00:00) 9.7 13.06 (19:20) 6.67 (19:10) 8.4 6.6 1.2 0 0.6
31-01-2019 9.4 (15:00) 3.2 (00:00) 6.3 4.44 (16:50) 2.78 (16:50) 5.8 4 1.8 0 0
30-01-2019 10.3 (15:00) 3.1 (00:00) 6.7 14.72 (12:20) 9.17 (02:40) 0.2 0 0 0 0.2
29-01-2019 9.1 (14:40) 4 (00:00) 6.6 15 (02:50) 9.72 (02:50) 1.2 0 0 1 0.2
28-01-2019 11.2 (13:30) 3.8 (00:00) 7.5 21.67 (14:50) 14.17 (14:30) 0 0 0 0 0
27-01-2019 12 (13:40) 2.9 (00:00) 7.5 20 (15:30) 13.06 (15:30) 0 0 0 0 0
26-01-2019 15.3 (16:00) 3.6 (00:00) 9.5 11.39 (01:30) 7.22 (01:20) 0 0 0 0 0
25-01-2019 16.7 (15:10) 2.7 (00:00) 9.7 19.17 (17:20) 12.5 (17:00) 0 0 0 0 0
24-01-2019 9.6 (15:10) 3.2 (00:00) 6.4 16.94 (00:30) 9.72 (01:10) 0 0 0 0 0

Gráficas

Temp. máximas Temp. mínimas Temp. medias Precipitaciones Rachas de viento máximas Velocidades máximas media en intervalos de 10 minutos

Datos horarios

Fecha y hora oficial Temperatura (ºC) Velocidad del viento (km/h) Dirección del viento Racha (km/h) Dirección de racha Precipitación (mm) Presión (hPa) Tendencia (hPa) Humedad (%)
2019-02-22 23:00:00 7.6 3 Noroeste 4 Nordeste 0 -- -- 68
2019-02-22 22:00:00 8.9 2 Noroeste 4 Noroeste 0 -- -- 64
2019-02-22 21:00:00 10.8 0 Calma 4 Oeste 0 -- -- 55
2019-02-22 20:00:00 12.9 3 Noroeste 6 Oeste 0 -- -- 51
2019-02-22 19:00:00 15.7 3 Noroeste 12 Oeste 0 -- -- 43
2019-02-22 18:00:00 19.7 7 Oeste 16 Oeste 0 -- -- 35
2019-02-22 17:00:00 21.4 10 Oeste 19 Sudoeste 0 -- -- 31
2019-02-22 16:00:00 21.3 11 Oeste 20 Sudoeste 0 -- -- 33
2019-02-22 15:00:00 19.8 5 Oeste 13 Oeste 0 -- -- 41
2019-02-22 14:00:00 17.4 3 Oeste 9 Oeste 0 -- -- 50
2019-02-22 13:00:00 14.5 3 Oeste 9 Sudoeste 0 -- -- 57
2019-02-22 12:00:00 11.7 3 Norte 8 Norte 0 -- -- 65
2019-02-22 11:00:00 8.3 4 Noroeste 10 Oeste 0 -- -- 75
2019-02-22 10:00:00 4.7 5 Noroeste 8 Norte 0 -- -- 89
2019-02-22 09:00:00 1.5 4 Oeste 10 Norte 0 -- -- 93
2019-02-22 08:00:00 0.6 5 Norte 17 Norte 0 -- -- 94
2019-02-22 07:00:00 0.7 4 Noroeste 9 Sudoeste 0 -- -- 94
2019-02-22 06:00:00 1.6 3 Sudoeste 9 Norte 0 -- -- 91
2019-02-22 05:00:00 1.9 9 Norte 13 Norte 0 -- -- 93
2019-02-22 04:00:00 1.9 4 Oeste 9 Oeste 0 -- -- 92
2019-02-22 03:00:00 3.6 5 Norte 12 Norte 0 -- -- 90
2019-02-22 02:00:00 3.8 8 Noroeste 13 Norte 0 -- -- 90
2019-02-22 01:00:00 4.1 3 Norte 9 Noroeste 0 -- -- 87
2019-02-22 00:00:00 5.7 3 Noroeste 11 Norte 0 -- -- 85
2019-02-21 23:00:00 5.8 3 Noroeste 6 Oeste 0 -- -- 82
2019-02-21 22:00:00 7.5 3 Norte 5 Norte 0 -- -- 78
2019-02-21 21:00:00 9.9 2 Sur 6 Este 0 -- -- 74
2019-02-21 20:00:00 11.8 4 Este 8 Este 0 -- -- 66
2019-02-21 19:00:00 14 5 Este 8 Este 0 -- -- 55
2019-02-21 18:00:00 16.5 0 Calma 6 Sudeste 0 -- -- 48
2019-02-21 17:00:00 17.4 4 Este 6 Este 0 -- -- 46
2019-02-21 16:00:00 16.8 3 Noroeste 9 Este 0 -- -- 49
2019-02-21 15:00:00 15.7 4 Este 9 Este 0 -- -- 53
2019-02-21 14:00:00 15.3 5 Sur 9 Sur 0 -- -- 56
2019-02-21 13:00:00 12.7 3 Sudoeste 8 Oeste 0 -- -- 66
2019-02-21 12:00:00 10.2 3 Norte 8 Oeste 0 -- -- 74
2019-02-21 11:00:00 7 2 Noroeste 6 Oeste 0 -- -- 86
2019-02-21 10:00:00 3.8 2 Oeste 5 Norte 0 -- -- 94
2019-02-21 09:00:00 1.1 4 Norte 8 Noroeste 0 -- -- 96
2019-02-21 08:00:00 0.7 4 Noroeste 9 Oeste 0 -- -- 95
2019-02-21 07:00:00 1 3 Norte 7 Noroeste 0 -- -- 95
2019-02-21 06:00:00 1.2 2 Norte 6 Noroeste 0 -- -- 94
2019-02-21 05:00:00 1.5 4 Norte 8 Noroeste 0 -- -- 94
2019-02-21 04:00:00 1.5 6 Noroeste 9 Noroeste 0 -- -- 93
2019-02-21 03:00:00 2.2 4 Norte 6 Norte 0 -- -- 92
2019-02-21 02:00:00 2.7 2 Noroeste 8 Noroeste 0 -- -- 91
2019-02-21 01:00:00 3.9 4 Norte 11 Norte 0 -- -- 89
2019-02-21 00:00:00 4.5 4 Norte 6 Norte 0 -- -- 88
2019-02-20 23:00:00 5.3 4 Norte 8 Sudoeste 0 -- -- 86
2019-02-20 22:00:00 6.8 5 Oeste 9 Oeste 0 -- -- 81
2019-02-20 21:00:00 9.2 4 Nordeste 13 Nordeste 0 -- -- 75
2019-02-20 20:00:00 9.4 3 Nordeste 9 Este 0 -- -- 74
2019-02-20 19:00:00 10.9 4 Nordeste 9 Este 0 -- -- 68
2019-02-20 18:00:00 13.1 5 Este 10 Este 0 -- -- 61
2019-02-20 17:00:00 14.4 4 Este 12 Este 0 -- -- 56
2019-02-20 16:00:00 14.6 4 Sudeste 14 Sudeste 0 -- -- 58
2019-02-20 15:00:00 14 7 Sudeste 13 Sudeste 0 -- -- 60
2019-02-20 14:00:00 12.8 7 Este 15 Este 0 -- -- 66
2019-02-20 13:00:00 11.9 7 Este 15 Sudeste 0 -- -- 72
2019-02-20 12:00:00 7.8 4 Oeste 8 Sudoeste 0 -- -- 93
2019-02-20 11:00:00 3.9 4 Oeste 6 Oeste 0 -- -- 99
2019-02-20 10:00:00 2.4 4 Oeste 9 Norte 0 -- -- 98
2019-02-20 09:00:00 0.7 5 Noroeste 9 Noroeste 0 -- -- 97
2019-02-20 08:00:00 -0.7 5 Noroeste 9 Norte 0 -- -- 95
2019-02-20 07:00:00 0.5 5 Noroeste 7 Noroeste 0 -- -- 94
2019-02-20 06:00:00 0.7 3 Norte 9 Noroeste 0 -- -- 94
2019-02-20 05:00:00 1 3 Noroeste 7 Noroeste 0 -- -- 94
2019-02-20 04:00:00 1.8 4 Noroeste 9 Noroeste 0 -- -- 93
2019-02-20 03:00:00 2 0 Calma 5 Oeste 0 -- -- 93
2019-02-20 02:00:00 2.7 2 Norte 9 Oeste 0 -- -- 92
2019-02-20 01:00:00 4.8 2 Noroeste 8 Sudeste 0 -- -- 86
2019-02-20 00:00:00 5.9 4 Este 9 Este 0 -- -- 88
2019-02-19 23:00:00 5.5 4 Nordeste 5 Nordeste 0 -- -- 87
2019-02-19 22:00:00 5.9 3 Norte 4 Norte 0 -- -- 82
2019-02-19 21:00:00 7.3 0 Calma 6 Norte 0 -- -- 77
2019-02-19 20:00:00 9.1 5 Nordeste 7 Nordeste 0 -- -- 70
2019-02-19 19:00:00 10.8 3 Nordeste 9 Este 0 -- -- 64
2019-02-19 18:00:00 12.8 7 Este 14 Este 0 -- -- 59
2019-02-19 17:00:00 14.3 10 Este 16 Este 0 -- -- 56
2019-02-19 16:00:00 14.4 3 Nordeste 15 Sur 0 -- -- 58
2019-02-19 15:00:00 13.6 6 Este 15 Este 0 -- -- 62
2019-02-19 14:00:00 12.9 6 Sudeste 19 Sudeste 0 -- -- 63
2019-02-19 13:00:00 11.2 9 Sudeste 18 Sudeste 0 -- -- 71
2019-02-19 12:00:00 10 6 Sur 13 Sudeste 0 -- -- 74
2019-02-19 11:00:00 5.8 2 Oeste 5 Sudoeste 0 -- -- 90
2019-02-19 10:00:00 2.4 3 Oeste 6 Oeste 0 -- -- 94
2019-02-19 09:00:00 0.3 4 Noroeste 9 Noroeste 0 -- -- 94
2019-02-19 08:00:00 0.2 3 Noroeste 8 Oeste 0 -- -- 96
2019-02-19 07:00:00 0.4 3 Norte 7 Oeste 0 -- -- 96
2019-02-19 06:00:00 0.8 3 Noroeste 5 Noroeste 0 -- -- 96
2019-02-19 05:00:00 1.4 4 Oeste 8 Norte 0 -- -- 95
2019-02-19 04:00:00 2 5 Norte 10 Noroeste 0 -- -- 94
2019-02-19 03:00:00 2.4 8 Oeste 11 Oeste 0 -- -- 93
2019-02-19 02:00:00 4.4 3 Sudeste 8 Sudeste 0 -- -- 90
2019-02-19 01:00:00 5.7 0 Calma 9 Este 0 -- -- 86
2019-02-19 00:00:00 6.7 4 Este 12 Este 0 -- -- 83
2019-02-18 23:00:00 7.4 2 Este 19 Este 0 -- -- 83
2019-02-18 22:00:00 7.5 8 Este 17 Este 0 -- -- 83
2019-02-18 21:00:00 8.2 3 Nordeste 9 Nordeste 0 -- -- 76
2019-02-18 20:00:00 9.6 5 Nordeste 9 Norte 0 -- -- 69
2019-02-18 19:00:00 11.2 3 Nordeste 16 Este 0 -- -- 64
2019-02-18 18:00:00 13.7 9 Este 23 Este 0 -- -- 58
2019-02-18 17:00:00 14.9 11 Este 23 Este 0 -- -- 53
2019-02-18 16:00:00 14.6 12 Este 22 Este 0 -- -- 51
2019-02-18 15:00:00 14.4 12 Sudeste 23 Este 0 -- -- 54
2019-02-18 14:00:00 13.5 11 Este 25 Este 0 -- -- 60
2019-02-18 13:00:00 12.6 13 Sudeste 28 Sudeste 0 -- -- 63
2019-02-18 12:00:00 10.7 7 Sudeste 15 Sudeste 0 -- -- 64
2019-02-18 11:00:00 6 0 Calma 4 Noroeste 0 -- -- 73
2019-02-18 10:00:00 3.4 2 Oeste 6 Oeste 0 -- -- 79
2019-02-18 09:00:00 0.7 4 Oeste 9 Oeste 0 -- -- 89
2019-02-18 08:00:00 -0.8 5 Noroeste 8 Oeste 0 -- -- 89
2019-02-18 07:00:00 0.2 3 Noroeste 5 Noroeste 0 -- -- 88
2019-02-18 06:00:00 0.3 3 Norte 7 Noroeste 0 -- -- 86
2019-02-18 05:00:00 1.6 6 Oeste 8 Oeste 0 -- -- 88
2019-02-18 04:00:00 2 3 Oeste 6 Sudoeste 0 -- -- 84
2019-02-18 03:00:00 4.3 3 Sur 8 Este 0 -- -- 72
2019-02-18 02:00:00 5.3 5 Nordeste 11 Nordeste 0 -- -- 67
2019-02-18 01:00:00 5.7 2 Nordeste 14 Este 0 -- -- 68
2019-02-18 00:00:00 7 9 Este 20 Este 0 -- -- 72
2019-02-17 23:00:00 7.3 5 Este 22 Este 0 -- -- 70
2019-02-17 22:00:00 8.5 10 Este 30 Este 0 -- -- 62
2019-02-17 21:00:00 9.9 15 Este 31 Este 0 -- -- 57
2019-02-17 20:00:00 10.6 15 Este 28 Sudeste 0 -- -- 54
2019-02-17 19:00:00 12.3 16 Este 30 Este 0 -- -- 45
2019-02-17 18:00:00 14.8 14 Este 27 Este 0 -- -- 40
2019-02-17 17:00:00 16.5 17 Este 28 Este 0 -- -- 33
2019-02-17 16:00:00 16.5 12 Este 23 Sudeste 0 -- -- 33
2019-02-17 15:00:00 15.7 15 Este 26 Este 0 -- -- 32
2019-02-17 14:00:00 15.1 13 Este 21 Este 0 -- -- 29
2019-02-17 13:00:00 14.2 8 Sudeste 15 Este 0 -- -- 30
2019-02-17 12:00:00 11.2 6 Sudeste 14 Sudeste 0 -- -- 42
2019-02-17 11:00:00 6.4 4 Oeste 8 Oeste 0 -- -- 50
2019-02-17 10:00:00 3.3 2 Noroeste 5 Oeste 0 -- -- 71
2019-02-17 09:00:00 -0.1 0 Calma 4 Norte 0 -- -- 80
2019-02-17 08:00:00 -2.3 3 Norte 4 Norte 0 -- -- 83
2019-02-17 07:00:00 -1.6 4 Oeste 5 Norte 0 -- -- 82
2019-02-17 06:00:00 -1.3 3 Norte 5 Norte 0 -- -- 76
2019-02-17 05:00:00 -0.8 0 Calma 9 Noroeste 0 -- -- 71
2019-02-17 04:00:00 -0.2 7 Noroeste 9 Noroeste 0 -- -- 68
2019-02-17 03:00:00 1.1 3 Noroeste 7 Noroeste 0 -- -- 70
2019-02-17 02:00:00 2 2 Norte 8 Oeste 0 -- -- 66
2019-02-17 01:00:00 2.7 8 Oeste 10 Oeste 0 -- -- 65
2019-02-17 00:00:00 6.6 5 Oeste 12 Este 0 -- -- 39
2019-02-16 23:00:00 8.3 5 Este 18 Este 0 -- -- 32
2019-02-16 22:00:00 8.7 7 Este 20 Este 0 -- -- 33
2019-02-16 21:00:00 9.8 14 Este 26 Este 0 -- -- 35
2019-02-16 20:00:00 11 10 Sudeste 18 Sudeste 0 -- -- 44
2019-02-16 19:00:00 12.3 9 Este 17 Este 0 -- -- 39
2019-02-16 18:00:00 14.6 9 Este 30 Este 0 -- -- 34
2019-02-16 17:00:00 16.2 21 Este 31 Este 0 -- -- 30
2019-02-16 16:00:00 16.1 17 Este 28 Este 0 -- -- 31
2019-02-16 15:00:00 16.2 13 Sudeste 23 Sudeste 0 -- -- 33
2019-02-16 14:00:00 15.3 13 Sudeste 22 Este 0 -- -- 35
2019-02-16 13:00:00 13.5 10 Este 17 Este 0 -- -- 47
2019-02-16 12:00:00 10.7 4 Sudeste 8 Sudeste 0 -- -- 57
2019-02-16 11:00:00 6.9 2 Sudoeste 5 Sudoeste 0 -- -- 68
2019-02-16 10:00:00 2.7 3 Noroeste 7 Noroeste 0 -- -- 81
2019-02-16 09:00:00 -0.1 3 Noroeste 6 Norte 0 -- -- 86
2019-02-16 08:00:00 -1.1 2 Norte 9 Noroeste 0 -- -- 86
2019-02-16 07:00:00 -0.7 5 Norte 9 Noroeste 0 -- -- 87
2019-02-16 06:00:00 -0.6 5 Noroeste 8 Norte 0 -- -- 88
2019-02-16 05:00:00 0 5 Noroeste 9 Oeste 0 -- -- 88
2019-02-16 04:00:00 0.4 0 Calma 8 Noroeste 0 -- -- 84
2019-02-16 03:00:00 1 4 Noroeste 6 Norte 0 -- -- 85
2019-02-16 02:00:00 1.8 2 Norte 10 Noroeste 0 -- -- 81
2019-02-16 01:00:00 2.3 7 Noroeste 10 Norte 0 -- -- 81
2019-02-16 00:00:00 3.3 5 Norte 11 Norte 0 -- -- 78
2019-02-15 23:00:00 4.4 5 Norte 12 Norte 0 -- -- 73
2019-02-15 22:00:00 5.2 4 Noroeste 8 Oeste 0 -- -- 74
2019-02-15 21:00:00 6.5 7 Oeste 9 Oeste 0 -- -- 73
2019-02-15 20:00:00 9.1 4 Norte 7 Norte 0 -- -- 62
2019-02-15 19:00:00 10.9 4 Nordeste 5 Nordeste 0 -- -- 57
2019-02-15 18:00:00 13 4 Este 15 Este 0 -- -- 52
2019-02-15 17:00:00 14.1 8 Este 15 Este 0 -- -- 48
2019-02-15 16:00:00 14 8 Sudeste 14 Sudeste 0 -- -- 49
2019-02-15 15:00:00 13.2 7 Sudeste 16 Sudeste 0 -- -- 53
2019-02-15 14:00:00 12.2 9 Este 18 Este 0 -- -- 54
2019-02-15 13:00:00 11 5 Sudeste 11 Sudeste 0 -- -- 66
2019-02-15 12:00:00 7.9 3 Oeste 8 Sudoeste 0 -- -- 73
2019-02-15 11:00:00 4.6 5 Noroeste 8 Oeste 0 -- -- 82
2019-02-15 10:00:00 1 4 Noroeste 7 Noroeste 0 -- -- 90
2019-02-15 09:00:00 -0.9 4 Noroeste 7 Noroeste 0 -- -- 88
2019-02-15 08:00:00 -1.7 4 Noroeste 7 Norte 0 -- -- 89
2019-02-15 07:00:00 -1.8 4 Noroeste 14 Norte 0 -- -- 90
2019-02-15 06:00:00 -0.7 6 Noroeste 13 Noroeste 0 -- -- 92
2019-02-15 05:00:00 -0.3 4 Noroeste 10 Noroeste 0 -- -- 94
2019-02-15 04:00:00 0.1 5 Noroeste 8 Noroeste 0 -- -- 95
2019-02-15 03:00:00 1.3 0 Calma 5 Oeste 0 -- -- 94
2019-02-15 02:00:00 2.3 4 Oeste 8 Oeste 0 -- -- 94
2019-02-15 01:00:00 3 4 Sudoeste 6 Sudoeste 0 -- -- 90
2019-02-15 00:00:00 4.7 3 Nordeste 8 Nordeste 0 -- -- 89
2019-02-14 23:00:00 5.5 4 Nordeste 10 Nordeste 0 -- -- 87
2019-02-14 22:00:00 6.2 4 Norte 8 Norte 0 -- -- 77
2019-02-14 21:00:00 7.4 3 Nordeste 8 Este 0 -- -- 67
2019-02-14 20:00:00 8.9 3 Este 8 Este 0 -- -- 64
2019-02-14 19:00:00 11.2 5 Este 13 Sudeste 0 -- -- 57
2019-02-14 18:00:00 13.7 9 Este 20 Sudeste 0 -- -- 49
2019-02-14 17:00:00 14.9 16 Este 27 Este 0 -- -- 42
2019-02-14 16:00:00 14.8 18 Sudeste 27 Este 0 -- -- 42
2019-02-14 15:00:00 14.2 13 Este 24 Sudeste 0 -- -- 43
2019-02-14 14:00:00 13.5 12 Sudeste 25 Sudeste 0 -- -- 50
2019-02-14 13:00:00 12.4 15 Sudeste 30 Sudeste 0 -- -- 60
2019-02-14 12:00:00 11 14 Sudeste 23 Este 0 -- -- 69
2019-02-14 11:00:00 7.4 5 Sudeste 8 Sudeste 0 -- -- 78
2019-02-14 10:00:00 4.1 2 Sudoeste 5 Sudoeste 0 -- -- 95
2019-02-14 09:00:00 1.2 0 Calma 4 Norte 0 -- -- 98
2019-02-14 08:00:00 -0.1 3 Noroeste 4 Oeste 0 -- -- 97
2019-02-14 07:00:00 0 0 Calma 6 Oeste 0 -- -- 96
2019-02-14 06:00:00 0 2 Sudoeste 5 Sudoeste 0 -- -- 95
2019-02-14 05:00:00 0.9 0 Calma 5 Norte 0 -- -- 95
2019-02-14 04:00:00 1.5 3 Noroeste 7 Oeste 0 -- -- 95
2019-02-14 03:00:00 1.8 7 Oeste 8 Oeste 0 -- -- 92
2019-02-14 02:00:00 3.9 0 Calma 5 Nordeste 0 -- -- 92
2019-02-14 01:00:00 4.9 2 Nordeste 10 Nordeste 0 -- -- 90
2019-02-14 00:00:00 5.5 7 Nordeste 10 Nordeste 0 -- -- 87
2019-02-13 23:00:00 6.1 6 Nordeste 10 Nordeste 0 -- -- 86
2019-02-13 22:00:00 6.6 5 Nordeste 9 Nordeste 0 -- -- 79
2019-02-13 21:00:00 7.3 0 Calma 6 Nordeste 0 -- -- 67
2019-02-13 20:00:00 8.8 3 Nordeste 8 Nordeste 0 -- -- 60
2019-02-13 19:00:00 11 3 Nordeste 9 Este 0 -- -- 52
2019-02-13 18:00:00 13.1 6 Este 14 Sudeste 0 -- -- 48
2019-02-13 17:00:00 14.5 7 Este 14 Este 0 -- -- 45
2019-02-13 16:00:00 14.5 7 Sudeste 17 Este 0 -- -- 47
2019-02-13 15:00:00 14 7 Este 13 Este 0 -- -- 46
2019-02-13 14:00:00 12.8 5 Este 14 Este 0 -- -- 51
2019-02-13 13:00:00 11.3 5 Sudeste 15 Sudeste 0 -- -- 58
2019-02-13 12:00:00 9.5 9 Sudeste 14 Este 0 -- -- 63
2019-02-13 11:00:00 6.8 3 Sudeste 8 Sudeste 0 -- -- 74
2019-02-13 10:00:00 3.3 3 Sudeste 5 Este 0 -- -- 81
2019-02-13 09:00:00 -0.2 0 Calma 8 Noroeste 0 -- -- 90
2019-02-13 08:00:00 -0.9 0 Calma 9 Noroeste 0 -- -- 89
2019-02-13 07:00:00 -0.8 6 Norte 10 Noroeste 0 -- -- 91
2019-02-13 06:00:00 -0.6 3 Noroeste 7 Norte 0 -- -- 91
2019-02-13 05:00:00 -0.4 3 Noroeste 7 Norte 0 -- -- 90
2019-02-13 04:00:00 0.4 4 Norte 8 Norte 0 -- -- 88
2019-02-13 03:00:00 1.1 4 Norte 9 Noroeste 0 -- -- 86
2019-02-13 02:00:00 1.2 4 Noroeste 13 Noroeste 0 -- -- 86
2019-02-13 01:00:00 1.5 8 Norte 10 Norte 0 -- -- 85
2019-02-13 00:00:00 2.3 3 Norte 6 Norte 0 -- -- 83
2019-02-12 23:00:00 3.1 4 Norte 8 Noroeste 0 -- -- 78
2019-02-12 22:00:00 4.2 3 Noroeste 10 Noroeste 0 -- -- 77
2019-02-12 21:00:00 6.2 6 Oeste 9 Noroeste 0 -- -- 71
2019-02-12 20:00:00 8.6 3 Este 6 Este 0 -- -- 60
2019-02-12 19:00:00 10.6 3 Nordeste 6 Nordeste 0 -- -- 55
2019-02-12 18:00:00 13.7 2 Nordeste 6 Sudeste 0 -- -- 44
2019-02-12 17:00:00 15.1 2 Sur 14 Este 0 -- -- 40
2019-02-12 16:00:00 15 5 Sur 14 Sur 0 -- -- 42
2019-02-12 15:00:00 13.9 4 Sudeste 12 Sur 0 -- -- 46
2019-02-12 14:00:00 13.1 5 Sur 12 Sur 0 -- -- 49
2019-02-12 13:00:00 10.9 4 Sudeste 8 Sur 0 -- -- 56
2019-02-12 12:00:00 7.6 5 Sudoeste 10 Sur 0 -- -- 66
2019-02-12 11:00:00 5.1 5 Noroeste 13 Noroeste 0 -- -- 78
2019-02-12 10:00:00 1.9 4 Norte 9 Noroeste 0 -- -- 87
2019-02-12 09:00:00 -0.5 5 Noroeste 13 Oeste 0 -- -- 94
2019-02-12 08:00:00 -1.9 2 Norte 6 Noroeste 0 -- -- 92
2019-02-12 07:00:00 -1.2 2 Oeste 8 Norte 0 -- -- 90
2019-02-12 06:00:00 -0.8 4 Noroeste 7 Noroeste 0 -- -- 91
2019-02-12 05:00:00 -0.9 2 Noroeste 9 Este 0 -- -- 90
2019-02-12 04:00:00 1 3 Noroeste 10 Noroeste 0 -- -- 87
2019-02-12 03:00:00 2.4 7 Noroeste 14 Norte 0 -- -- 87
2019-02-12 02:00:00 2.6 4 Noroeste 10 Norte 0 -- -- 84
2019-02-12 01:00:00 4.1 6 Norte 15 Noroeste 0 -- -- 80
2019-02-12 00:00:00 4 7 Noroeste 11 Noroeste 0 -- -- 83
2019-02-11 23:00:00 4.6 6 Noroeste 18 Oeste 0 -- -- 80
2019-02-11 22:00:00 6 13 Oeste 26 Oeste 0 -- -- 75
2019-02-11 21:00:00 7.2 16 Oeste 26 Oeste 0 -- -- 69
2019-02-11 20:00:00 8.6 13 Oeste 31 Oeste 0 -- -- 61
2019-02-11 19:00:00 9.7 17 Oeste 35 Oeste 0 -- -- 60
2019-02-11 18:00:00 12.1 26 Oeste 44 Oeste 0 -- -- 47
2019-02-11 17:00:00 13.5 30 Oeste 49 Oeste 0 -- -- 45
2019-02-11 16:00:00 14.1 28 Oeste 50 Oeste 0 -- -- 47
2019-02-11 15:00:00 13.6 28 Oeste 53 Oeste 0 -- -- 52
2019-02-11 14:00:00 13.1 27 Oeste 51 Oeste 0 -- -- 54
2019-02-11 13:00:00 12.2 26 Oeste 51 Oeste 0 -- -- 56
2019-02-11 12:00:00 11.1 24 Oeste 53 Noroeste 0 -- -- 61
2019-02-11 11:00:00 9.2 31 Oeste 56 Oeste 0 -- -- 68
2019-02-11 10:00:00 7.6 26 Oeste 46 Oeste 0 -- -- 73
2019-02-11 09:00:00 6.2 27 Oeste 43 Oeste 0 -- -- 78
2019-02-11 08:00:00 5.7 23 Oeste 47 Oeste 0 -- -- 78
2019-02-11 07:00:00 5.9 22 Oeste 44 Oeste 0 -- -- 75
2019-02-11 06:00:00 6.4 25 Oeste 48 Oeste 0 -- -- 72
2019-02-11 05:00:00 6.7 29 Oeste 56 Oeste 0 -- -- 69
2019-02-11 04:00:00 6.9 17 Oeste 52 Oeste 0 -- -- 67
2019-02-11 03:00:00 7.3 34 Oeste 50 Oeste 0 -- -- 66
2019-02-11 02:00:00 7.6 22 Oeste 41 Oeste 0 -- -- 67
2019-02-11 01:00:00 7.7 22 Oeste 41 Oeste 0 -- -- 69
2019-02-11 00:00:00 8.6 25 Oeste 39 Oeste 0 -- -- 66
2019-02-10 23:00:00 9.4 19 Oeste 37 Oeste 0 -- -- 67
2019-02-10 22:00:00 9.9 20 Oeste 34 Oeste 0 -- -- 65
2019-02-10 21:00:00 9.8 19 Oeste 32 Oeste 0 -- -- 72
2019-02-10 20:00:00 10.4 11 Oeste 25 Oeste 0 -- -- 75
2019-02-10 19:00:00 11.3 13 Oeste 28 Oeste 0 -- -- 70
2019-02-10 18:00:00 12.7 14 Noroeste 30 Oeste 0 -- -- 74
2019-02-10 17:00:00 14.6 17 Noroeste 33 Noroeste 0 -- -- 62
2019-02-10 16:00:00 15.7 9 Noroeste 23 Noroeste 0 -- -- 58
2019-02-10 15:00:00 15.6 9 Noroeste 45 Oeste 0 -- -- 57
2019-02-10 14:00:00 16.1 22 Oeste 41 Oeste 0 -- -- 53
2019-02-10 13:00:00 13.4 12 Oeste 20 Oeste 0 -- -- 63
2019-02-10 12:00:00 10.2 5 Noroeste 12 Noroeste 0 -- -- 75
2019-02-10 11:00:00 7 4 Noroeste 7 Norte 0 -- -- 88
2019-02-10 10:00:00 4.6 3 Noroeste 7 Noroeste 0 -- -- 93
2019-02-10 09:00:00 -- 3 Noroeste 12 Norte 0 -- -- --
2019-02-10 08:00:00 2.7 0 Calma 9 Noroeste 0 -- -- 95
2019-02-10 07:00:00 2.5 3 Noroeste 10 Noroeste 0 -- -- 94
2019-02-10 06:00:00 2.9 6 Noroeste 12 Norte 0 -- -- 94
2019-02-10 05:00:00 2.9 3 Noroeste 9 Noroeste 0 -- -- 94
2019-02-10 04:00:00 2.7 5 Noroeste 9 Norte 0 -- -- 95
2019-02-10 03:00:00 2.8 4 Noroeste 6 Norte 0 -- -- 93
2019-02-10 02:00:00 3.9 4 Noroeste 13 Norte 0 -- -- 92
2019-02-10 01:00:00 3.8 4 Noroeste 9 Norte 0 -- -- 91
2019-02-10 00:00:00 4.7 3 Norte 10 Norte 0 -- -- 88
2019-02-09 23:00:00 5.5 5 Norte 10 Noroeste 0 -- -- 87
2019-02-09 22:00:00 6.9 3 Oeste 6 Noroeste 0 -- -- 84
2019-02-09 21:00:00 8.7 2 Sudeste 8 Este 0 -- -- 76
2019-02-09 20:00:00 9.1 3 Nordeste 8 Este 0 -- -- 76
2019-02-09 19:00:00 10.4 6 Este 15 Este 0 -- -- 72
2019-02-09 18:00:00 12.4 9 Este 16 Sudeste 0 -- -- 66
2019-02-09 17:00:00 13.9 9 Este 18 Este 0 -- -- 60
2019-02-09 16:00:00 14.9 9 Sudeste 16 Sudeste 0 -- -- 58
2019-02-09 15:00:00 14.5 7 Sudeste 14 Este 0 -- -- 61
2019-02-09 14:00:00 14.4 3 Noroeste 9 Sudeste 0 -- -- 60
2019-02-09 13:00:00 13 5 Este 9 Sudeste 0 -- -- 66
2019-02-09 12:00:00 10.8 4 Sudeste 7 Sudeste 0 -- -- 72
2019-02-09 11:00:00 7.5 3 Sudeste 6 Sudeste 0 -- -- 83
2019-02-09 10:00:00 3 0 Calma 7 Sudoeste 0 -- -- 95
2019-02-09 09:00:00 1.1 2 Noroeste 6 Oeste 0 -- -- 96
2019-02-09 08:00:00 0.7 0 Calma 4 Oeste 0 -- -- 94
2019-02-09 07:00:00 1.3 3 Sudoeste 5 Noroeste 0 -- -- 94
2019-02-09 06:00:00 1.7 3 Noroeste 5 Norte 0 -- -- 93
2019-02-09 05:00:00 2.2 0 Calma 8 Noroeste 0 -- -- 91
2019-02-09 04:00:00 3 3 Noroeste 8 Norte 0 -- -- 91
2019-02-09 03:00:00 3.3 4 Norte 10 Norte 0 -- -- 91
2019-02-09 02:00:00 4 6 Norte 17 Norte 0 -- -- 88
2019-02-09 01:00:00 4.6 6 Norte 16 Norte 0 -- -- 85
2019-02-09 00:00:00 4.9 14 Norte 25 Norte 0 -- -- 85
2019-02-08 23:00:00 4.8 4 Noroeste 11 Norte 0 -- -- 88
2019-02-08 22:00:00 6.1 8 Norte 13 Norte 0 -- -- 87
2019-02-08 21:00:00 7 0 Calma 3 Sudeste 0 -- -- 81
2019-02-08 20:00:00 8.7 0 Calma 6 Sudeste 0 -- -- 75
2019-02-08 19:00:00 10.7 5 Sudeste 8 Sudeste 0 -- -- 68
2019-02-08 18:00:00 13 5 Este 12 Este 0 -- -- 60
2019-02-08 17:00:00 14.4 6 Este 12 Sudeste 0 -- -- 57
2019-02-08 16:00:00 14.3 6 Sudeste 13 Este 0 -- -- 56
2019-02-08 15:00:00 13.8 6 Este 13 Sudeste 0 -- -- 59
2019-02-08 14:00:00 12.6 9 Sudeste 15 Sudeste 0 -- -- 62
2019-02-08 13:00:00 11.5 8 Sudeste 13 Sudeste 0 -- -- 66
2019-02-08 12:00:00 9.2 5 Sudeste 11 Este 0 -- -- 75
2019-02-08 11:00:00 6.2 5 Sudeste 9 Sudeste 0 -- -- 82
2019-02-08 10:00:00 2.7 2 Nordeste 8 Norte 0 -- -- 92
2019-02-08 09:00:00 1 2 Norte 13 Norte 0 -- -- 94
2019-02-08 08:00:00 0.3 5 Norte 9 Noroeste 0 -- -- 92
2019-02-08 07:00:00 0.6 0 Calma 6 Norte 0 -- -- 91
2019-02-08 06:00:00 1.7 4 Noroeste 12 Norte 0 -- -- 89
2019-02-08 05:00:00 2.1 4 Norte 9 Oeste 0 -- -- 86
2019-02-08 04:00:00 3.7 3 Sudoeste 15 Norte 0 -- -- 83
2019-02-08 03:00:00 4.1 4 Noroeste 8 Norte 0 -- -- 84
2019-02-08 02:00:00 4.5 2 Nordeste 5 Oeste 0 -- -- 82
2019-02-08 01:00:00 5.7 0 Calma 10 Oeste 0 -- -- 75
2019-02-08 00:00:00 7.4 4 Oeste 26 Oeste 0 -- -- 69
2019-02-07 23:00:00 7.4 7 Oeste 22 Oeste 0 -- -- 70
2019-02-07 22:00:00 9.2 12 Oeste 40 Noroeste 0 -- -- 64
2019-02-07 21:00:00 10 27 Oeste 38 Oeste 0 -- -- 61
2019-02-07 20:00:00 10.7 20 Noroeste 37 Oeste 0 -- -- 64
2019-02-07 19:00:00 11.9 21 Oeste 41 Oeste 0 -- -- 62
2019-02-07 18:00:00 13.3 18 Oeste 41 Oeste 0 -- -- 55
2019-02-07 17:00:00 15.3 26 Oeste 45 Oeste 0 -- -- 53
2019-02-07 16:00:00 16.1 26 Oeste 45 Oeste 0 -- -- 52
2019-02-07 15:00:00 15.9 17 Oeste 37 Oeste 0 -- -- 56
2019-02-07 14:00:00 12.3 11 Sudeste 18 Sudeste 0 -- -- 76
2019-02-07 13:00:00 11.6 4 Sudoeste 10 Sudeste 0 -- -- 79
2019-02-07 12:00:00 8.3 2 Noroeste 6 Este 0 -- -- 97
2019-02-07 11:00:00 5.6 2 Sudeste 5 Sur 0 -- -- 100
2019-02-07 10:00:00 2.1 0 Calma 4 Norte 0 -- -- 100
2019-02-07 09:00:00 1.8 0 Calma 5 Oeste 0 -- -- 99
2019-02-07 08:00:00 2.3 2 Noroeste 5 Oeste 0 -- -- 99
2019-02-07 07:00:00 2.7 2 Oeste 10 Nordeste 0 -- -- 99
2019-02-07 06:00:00 2.4 5 Norte 9 Nordeste 0 -- -- 99
2019-02-07 05:00:00 2.5 0 Calma 4 Norte 0 -- -- 98
2019-02-07 04:00:00 2.7 3 Noroeste 6 Oeste 0 -- -- 98
2019-02-07 03:00:00 2.7 2 Noroeste 12 Norte 0 -- -- 97
2019-02-07 02:00:00 2.8 3 Norte 7 Norte 0 -- -- 96
2019-02-07 01:00:00 3.9 4 Oeste 9 Noroeste 0 -- -- 95
2019-02-07 00:00:00 4 2 Norte 6 Norte 0 -- -- 95
2019-02-06 23:00:00 4.5 2 Noroeste 4 Norte 0 -- -- 95
2019-02-06 22:00:00 5.4 2 Oeste 4 Oeste 0 -- -- 94
2019-02-06 21:00:00 6.3 0 Calma 4 Nordeste 0 -- -- 92
2019-02-06 20:00:00 7.5 3 Nordeste 6 Este 0 -- -- 90
2019-02-06 19:00:00 8.7 4 Este 12 Sudeste 0 -- -- 86
2019-02-06 18:00:00 10.5 9 Este 16 Este 0 -- -- 80
2019-02-06 17:00:00 12.5 9 Sudeste 16 Sudeste 0 -- -- 74
2019-02-06 16:00:00 13.8 10 Sudeste 16 Sudeste 0 -- -- 70
2019-02-06 15:00:00 13.8 6 Sudeste 11 Sudeste 0 -- -- 69
2019-02-06 14:00:00 11.9 3 Oeste 8 Oeste 0 -- -- 76
2019-02-06 13:00:00 10.6 3 Oeste 10 Sudeste 0 -- -- 80
2019-02-06 12:00:00 8.5 3 Sudoeste 9 Oeste 0 -- -- 87
2019-02-06 11:00:00 6.6 5 Oeste 8 Sudoeste 0 -- -- 93
2019-02-06 10:00:00 3.9 4 Norte 13 Norte 0 -- -- 98
2019-02-06 09:00:00 1.8 6 Norte 11 Norte 0 -- -- 98
2019-02-06 08:00:00 1.1 4 Norte 6 Norte 0 -- -- 97
2019-02-06 07:00:00 2 2 Noroeste 6 Norte 0 -- -- 97
2019-02-06 06:00:00 2.9 0 Calma 8 Norte 0 -- -- 96
2019-02-06 05:00:00 4 2 Norte 7 Noroeste 0 -- -- 95
2019-02-06 04:00:00 4.9 0 Calma 5 Noroeste 0 -- -- 94
2019-02-06 03:00:00 6.3 4 Norte 12 Oeste 0 -- -- 93
2019-02-06 02:00:00 6.3 6 Noroeste 12 Oeste 0 -- -- 93
2019-02-06 01:00:00 6.6 4 Noroeste 10 Noroeste 0 -- -- 92
2019-02-06 00:00:00 7.3 6 Noroeste 11 Norte 0 -- -- 91
2019-02-05 23:00:00 7.5 4 Noroeste 9 Noroeste 0 -- -- 90
2019-02-05 22:00:00 8.3 5 Noroeste 9 Noroeste 0 -- -- 88
2019-02-05 21:00:00 9.8 6 Noroeste 22 Noroeste 0 -- -- 82
2019-02-05 20:00:00 11.3 11 Oeste 21 Oeste 0 -- -- 78
2019-02-05 19:00:00 12.7 12 Oeste 32 Oeste 0 -- -- 73
2019-02-05 18:00:00 15 19 Oeste 35 Oeste 0 -- -- 65
2019-02-05 17:00:00 16.5 26 Oeste 44 Noroeste 0 -- -- 60
2019-02-05 16:00:00 17.4 19 Oeste 36 Oeste 0 -- -- 58
2019-02-05 15:00:00 16.8 22 Oeste 36 Oeste 0 -- -- 58
2019-02-05 14:00:00 16.5 19 Oeste 31 Oeste 0 -- -- 59
2019-02-05 13:00:00 15.1 13 Oeste 25 Oeste 0 -- -- 63
2019-02-05 12:00:00 10.7 5 Sudeste 9 Sur 0 -- -- 70
2019-02-05 11:00:00 7.8 3 Nordeste 6 Nordeste 0 -- -- 74
2019-02-05 10:00:00 5.2 0 Calma 6 Este 0 -- -- 81
2019-02-05 09:00:00 2 0 Calma 8 Norte 0 -- -- 87
2019-02-05 08:00:00 2.5 3 Norte 9 Norte 0 -- -- 87
2019-02-05 07:00:00 4.1 7 Norte 18 Oeste 0 -- -- 86
2019-02-05 06:00:00 4.3 6 Noroeste 20 Noroeste 0 -- -- 91
2019-02-05 05:00:00 6.3 12 Noroeste 24 Noroeste 0 -- -- 87
2019-02-05 04:00:00 6.3 8 Noroeste 15 Oeste 0 -- -- 87
2019-02-05 03:00:00 5.5 6 Norte 11 Noroeste 0 -- -- 87
2019-02-05 02:00:00 6.4 8 Norte 12 Noroeste 0 -- -- 82
2019-02-05 01:00:00 6.3 4 Norte 8 Noroeste 0 -- -- 83
2019-02-05 00:00:00 6.5 2 Nordeste 8 Norte 0 -- -- 72
2019-02-04 23:00:00 7.2 3 Norte 5 Norte 0 -- -- 69
2019-02-04 22:00:00 7.6 4 Noroeste 9 Noroeste 0 -- -- 68
2019-02-04 21:00:00 8.3 5 Noroeste 14 Oeste 0 -- -- 64
2019-02-04 20:00:00 9.1 4 Noroeste 15 Oeste 0 -- -- 61
2019-02-04 19:00:00 10.1 8 Oeste 17 Oeste 0 -- -- 51
2019-02-04 18:00:00 10.8 2 Oeste 13 Noroeste 0 -- -- 50
2019-02-04 17:00:00 11.9 9 Noroeste 22 Oeste 0 -- -- 46
2019-02-04 16:00:00 13.3 7 Noroeste 18 Noroeste 0 -- -- 37
2019-02-04 15:00:00 12.8 8 Oeste 20 Oeste 0 -- -- 37
2019-02-04 14:00:00 11.7 9 Noroeste 22 Oeste 0 -- -- 42
2019-02-04 13:00:00 -- 13 Oeste 21 Noroeste 0 -- -- --
2019-02-04 12:00:00 8.4 9 Noroeste 18 Oeste 0 -- -- 49
2019-02-04 11:00:00 5.3 5 Noroeste 14 Noroeste 0 -- -- 68
2019-02-04 10:00:00 3.3 9 Noroeste 15 Noroeste 0 -- -- 78
2019-02-04 09:00:00 1.4 4 Noroeste 21 Oeste 0 -- -- 82
2019-02-04 08:00:00 1.8 17 Oeste 28 Oeste 0 -- -- 79
2019-02-04 07:00:00 2.1 16 Oeste 33 Oeste 0 -- -- 77
2019-02-04 06:00:00 1.8 17 Oeste 27 Oeste 0 -- -- 79
2019-02-04 05:00:00 2 18 Oeste 31 Oeste 0 -- -- 77
2019-02-04 04:00:00 1.4 10 Oeste 26 Noroeste 0 -- -- 78
2019-02-04 03:00:00 1.9 12 Noroeste 23 Oeste 0 -- -- 77
2019-02-04 02:00:00 2.2 12 Oeste 30 Oeste 0 -- -- 73
2019-02-04 01:00:00 2.2 12 Oeste 31 Oeste 0 -- -- 71
2019-02-04 00:00:00 2.6 20 Oeste 33 Oeste 0 -- -- 66
2019-02-03 23:00:00 2.6 15 Oeste 26 Oeste 0 -- -- 62
2019-02-03 22:00:00 3 17 Oeste 31 Oeste 0 -- -- 59
2019-02-03 21:00:00 3.5 20 Oeste 41 Oeste 0 -- -- 55
2019-02-03 20:00:00 3.6 19 Oeste 36 Oeste 0 -- -- 41
2019-02-03 19:00:00 5.1 25 Oeste 41 Oeste 0 -- -- 35
2019-02-03 18:00:00 6.7 20 Oeste 43 Oeste 0 -- -- 33
2019-02-03 17:00:00 8.2 26 Oeste 54 Oeste 0 -- -- 29
2019-02-03 16:00:00 8.6 31 Oeste 60 Noroeste 0 -- -- 29
2019-02-03 15:00:00 8.4 37 Oeste 63 Oeste 0 -- -- 30
2019-02-03 14:00:00 8.3 36 Noroeste 61 Noroeste 0 -- -- 33
2019-02-03 13:00:00 7.9 34 Noroeste 59 Oeste 0 -- -- 35
2019-02-03 12:00:00 7.6 28 Noroeste 53 Oeste 0 -- -- 35
2019-02-03 11:00:00 6.1 27 Oeste 53 Oeste 0 -- -- 43
2019-02-03 10:00:00 4.4 31 Noroeste 49 Noroeste 0 -- -- 49
2019-02-03 09:00:00 3.1 24 Oeste 45 Oeste 0 -- -- 51
2019-02-03 08:00:00 2.5 23 Noroeste 43 Oeste 0 -- -- 50
2019-02-03 07:00:00 2.6 21 Oeste 58 Oeste 0 -- -- 56
2019-02-03 06:00:00 2.6 32 Noroeste 60 Noroeste 0 -- -- 56
2019-02-03 05:00:00 3.1 37 Oeste 56 Oeste 0 -- -- 51
2019-02-03 04:00:00 2.8 37 Oeste 57 Noroeste 0 -- -- 61
2019-02-03 03:00:00 2.3 31 Oeste 48 Oeste 0 -- -- 71
2019-02-03 02:00:00 2.3 32 Oeste 54 Oeste 0 -- -- 78
2019-02-03 01:00:00 2.2 31 Oeste 49 Oeste 0 -- -- 82
2019-02-03 00:00:00 2.6 29 Oeste 54 Oeste 0 -- -- 79
2019-02-02 23:00:00 2.5 35 Oeste 59 Oeste 0 -- -- 83
2019-02-02 22:00:00 2.5 31 Oeste 55 Oeste 0 -- -- 83
2019-02-02 21:00:00 2.8 32 Oeste 63 Oeste 0 -- -- 79
2019-02-02 20:00:00 3.5 35 Oeste 58 Oeste 0 -- -- 72
2019-02-02 19:00:00 4.7 35 Oeste 67 Oeste 0 -- -- 65
2019-02-02 18:00:00 5.5 41 Oeste 71 Oeste 0 -- -- 59
2019-02-02 17:00:00 7.6 41 Oeste 71 Oeste 0 -- -- 53
2019-02-02 16:00:00 7 42 Oeste 75 Oeste 0 -- -- 61
2019-02-02 15:00:00 7.9 41 Oeste 73 Oeste 0 -- -- 64
2019-02-02 14:00:00 7.9 43 Oeste 75 Noroeste 0 -- -- 68
2019-02-02 13:00:00 7.7 46 Oeste 75 Oeste 0 -- -- 69
2019-02-02 12:00:00 7.3 48 Oeste 76 Oeste 0 -- -- 73
2019-02-02 11:00:00 5.8 35 Oeste 66 Oeste 0 -- -- 81
2019-02-02 10:00:00 4 36 Oeste 58 Oeste 0 -- -- 85
2019-02-02 09:00:00 3.8 25 Oeste 53 Oeste 0 -- -- 86
2019-02-02 08:00:00 4 28 Oeste 53 Oeste 0 -- -- 86
2019-02-02 07:00:00 4.5 30 Oeste 54 Oeste 0.2 -- -- 83
2019-02-02 06:00:00 4.7 19 Oeste 33 Oeste 0 -- -- 83
2019-02-02 05:00:00 5 18 Oeste 39 Oeste 0 -- -- 82
2019-02-02 04:00:00 4.7 19 Oeste 38 Oeste 0 -- -- 84
2019-02-02 03:00:00 5 18 Oeste 34 Sudoeste 0 -- -- 82
2019-02-02 02:00:00 4.5 10 Oeste 19 Oeste 0 -- -- 82
2019-02-02 01:00:00 5.3 11 Oeste 24 Oeste 0 -- -- 78
2019-02-02 00:00:00 5.5 9 Oeste 30 Oeste 0 -- -- 75
2019-02-01 23:00:00 6.3 15 Oeste 28 Oeste 0 -- -- 73
2019-02-01 22:00:00 6.1 8 Oeste 17 Sudoeste 0 -- -- 78
2019-02-01 21:00:00 6 6 Sudoeste 22 Sudoeste 0 -- -- 82
2019-02-01 20:00:00 6 2 Oeste 47 Oeste 0.6 -- -- 87
2019-02-01 19:00:00 8.8 22 Oeste 40 Oeste 0 -- -- 72
2019-02-01 18:00:00 10.9 4 Oeste 13 Sudoeste 0 -- -- 69
2019-02-01 17:00:00 11.8 0 Calma 12 Norte 0 -- -- 69
2019-02-01 16:00:00 12.5 6 Norte 31 Oeste 0 -- -- 68
2019-02-01 15:00:00 13.7 12 Sudoeste 26 Sudoeste 0 -- -- 54
2019-02-01 14:00:00 12.3 7 Sudoeste 27 Sudoeste 0 -- -- 52
2019-02-01 13:00:00 12.7 8 Sudoeste 20 Oeste 0 -- -- 60
2019-02-01 12:00:00 10.5 3 Oeste 9 Sur 0 -- -- 79
2019-02-01 11:00:00 10.4 4 Este 9 Sudeste 0 -- -- 100
2019-02-01 10:00:00 7.6 7 Este 14 Sudeste 0 -- -- 100
2019-02-01 09:00:00 7.1 6 Sur 14 Sudeste 0.2 -- -- 99
2019-02-01 08:00:00 6.4 0 Calma 8 Nordeste 0.6 -- -- 99
2019-02-01 07:00:00 6.3 2 Sur 5 Sudeste 0.4 -- -- 99
2019-02-01 06:00:00 6.2 4 Sur 6 Sur 2 -- -- 99
2019-02-01 05:00:00 6.2 3 Sur 12 Oeste 2.2 -- -- 99
2019-02-01 04:00:00 6.3 4 Oeste 10 Noroeste 1.8 -- -- 99
2019-02-01 03:00:00 5.8 5 Norte 9 Noroeste 0.6 -- -- 98
2019-02-01 02:00:00 5.4 2 Oeste 8 Sudoeste 0 -- -- 98
2019-02-01 01:00:00 5.3 2 Noroeste 7 Noroeste 0 -- -- 97
2019-02-01 00:00:00 5.3 3 Noroeste 7 Oeste 0 -- -- 96
2019-01-31 23:00:00 6.2 3 Sudoeste 7 Oeste 0 -- -- 95
2019-01-31 22:00:00 6.8 3 Oeste 6 Noroeste 0 -- -- 93
2019-01-31 21:00:00 7.3 3 Norte 12 Este 0 -- -- 92
2019-01-31 20:00:00 7.7 5 Este 16 Este 0 -- -- 91
2019-01-31 19:00:00 8 9 Sudeste 15 Sudeste 0 -- -- 90
2019-01-31 18:00:00 8.2 6 Este 15 Este 0 -- -- 87
2019-01-31 17:00:00 8.9 9 Este 16 Este 0 -- -- 86
2019-01-31 16:00:00 9.3 6 Sudeste 11 Sudeste 0 -- -- 84
2019-01-31 15:00:00 9.4 6 Sur 11 Sudeste 0 -- -- 82
2019-01-31 14:00:00 8.3 3 Sudoeste 8 Oeste 0 -- -- 86
2019-01-31 13:00:00 6.8 2 Noroeste 6 Norte 0 -- -- 90
2019-01-31 12:00:00 6 2 Nordeste 5 Este 0 -- -- 97
2019-01-31 11:00:00 4.4 2 Este 4 Este 0.6 -- -- 97
2019-01-31 10:00:00 3.7 0 Calma 3 Este 0.6 -- -- 98
2019-01-31 09:00:00 3.5 0 Calma 6 Sudoeste 0.2 -- -- 98
2019-01-31 08:00:00 3.4 2 Sudoeste 4 Sudoeste 0 -- -- 97
2019-01-31 07:00:00 3.2 3 Oeste 4 Oeste 0.4 -- -- 97
2019-01-31 06:00:00 3.3 0 Calma 4 Nordeste 0.8 -- -- 96
2019-01-31 05:00:00 3.3 0 Calma 4 Sudoeste 0.8 -- -- 95
2019-01-31 04:00:00 3.3 0 Calma 5 Sudoeste 0.2 -- -- 95
2019-01-31 03:00:00 3.4 2 Sur 6 Sur 0.2 -- -- 94
2019-01-31 02:00:00 3.7 2 Sudoeste 8 Nordeste 1.2 -- -- 92
2019-01-31 01:00:00 3.7 6 Nordeste 11 Nordeste 0.8 -- -- 91
2019-01-31 00:00:00 3.5 8 Norte 12 Norte 0.2 -- -- 86
2019-01-30 23:00:00 3.7 4 Noroeste 12 Oeste 0 -- -- 84
2019-01-30 22:00:00 3.3 3 Oeste 7 Noroeste 0 -- -- 81
2019-01-30 21:00:00 3.9 2 Norte 8 Sudeste 0 -- -- 75
2019-01-30 20:00:00 5 0 Calma 8 Norte 0 -- -- 68
2019-01-30 19:00:00 6.3 4 Noroeste 11 Noroeste 0 -- -- 61
2019-01-30 18:00:00 7.8 7 Noroeste 18 Oeste 0 -- -- 57
2019-01-30 17:00:00 9.2 13 Oeste 30 Oeste 0 -- -- 53
2019-01-30 16:00:00 9.6 17 Oeste 41 Oeste 0 -- -- 54
2019-01-30 15:00:00 10.3 25 Oeste 49 Oeste 0 -- -- 52
2019-01-30 14:00:00 9.9 28 Oeste 48 Oeste 0 -- -- 54
2019-01-30 13:00:00 9.6 26 Oeste 53 Oeste 0 -- -- 56
2019-01-30 12:00:00 8.6 26 Oeste 46 Oeste 0 -- -- 63
2019-01-30 11:00:00 7.7 28 Oeste 46 Oeste 0 -- -- 68
2019-01-30 10:00:00 6 21 Oeste 38 Oeste 0 -- -- 75
2019-01-30 09:00:00 4.4 14 Oeste 46 Oeste 0 -- -- 80
2019-01-30 08:00:00 4.8 24 Oeste 45 Oeste 0 -- -- 78
2019-01-30 07:00:00 5 24 Oeste 45 Oeste 0 -- -- 76
2019-01-30 06:00:00 4.5 23 Oeste 49 Oeste 0 -- -- 82
2019-01-30 05:00:00 4.5 29 Oeste 51 Oeste 0 -- -- 81
2019-01-30 04:00:00 4.5 28 Oeste 51 Noroeste 0 -- -- 82
2019-01-30 03:00:00 4.9 32 Oeste 50 Oeste 0 -- -- 81
2019-01-30 02:00:00 4.9 26 Oeste 46 Oeste 0 -- -- 79
2019-01-30 01:00:00 5.5 31 Oeste 49 Oeste 0 -- -- 78
2019-01-30 00:00:00 6.1 28 Oeste 50 Oeste 0 -- -- 74
2019-01-29 23:00:00 6.2 28 Oeste 46 Oeste 0 -- -- 81
2019-01-29 22:00:00 6.2 26 Oeste 46 Oeste 0 -- -- 83
2019-01-29 21:00:00 4.6 18 Oeste 31 Oeste 0 -- -- 93
2019-01-29 20:00:00 4.6 6 Oeste 19 Oeste 0 -- -- 94
2019-01-29 19:00:00 5.7 6 Sudoeste 11 Sudoeste 0.2 -- -- 92
2019-01-29 18:00:00 6.9 3 Nordeste 10 Noroeste 0.4 -- -- 88
2019-01-29 17:00:00 7.9 2 Sudeste 6 Nordeste 0.2 -- -- 83
2019-01-29 16:00:00 8.2 3 Norte 6 Nordeste 0.4 -- -- 75
2019-01-29 15:00:00 8.9 4 Sudoeste 19 Sudoeste 0 -- -- 65
2019-01-29 14:00:00 8.8 9 Oeste 21 Sudoeste 0 -- -- 64
2019-01-29 13:00:00 8.6 10 Oeste 27 Oeste 0 -- -- 64
2019-01-29 12:00:00 8.1 12 Oeste 26 Oeste 0 -- -- 69
2019-01-29 11:00:00 7.7 18 Oeste 35 Oeste 0 -- -- 73
2019-01-29 10:00:00 6.6 17 Oeste 33 Oeste 0 -- -- 80
2019-01-29 09:00:00 6.4 22 Oeste 52 Oeste 0 -- -- 79
2019-01-29 08:00:00 6.1 25 Oeste 48 Oeste 0 -- -- 79
2019-01-29 07:00:00 5.5 14 Oeste 49 Oeste 0 -- -- 80
2019-01-29 06:00:00 5.8 24 Oeste 42 Oeste 0 -- -- 79
2019-01-29 05:00:00 5.6 25 Oeste 47 Noroeste 0 -- -- 78
2019-01-29 04:00:00 5.6 26 Oeste 47 Oeste 0 -- -- 79
2019-01-29 03:00:00 6.2 30 Oeste 54 Oeste 0 -- -- 75
2019-01-29 02:00:00 6.1 26 Oeste 52 Oeste 0 -- -- 77
2019-01-29 01:00:00 6.4 26 Oeste 50 Oeste 0 -- -- 76
2019-01-29 00:00:00 6.7 29 Oeste 48 Oeste 0 -- -- 75
2019-01-28 23:00:00 6.9 28 Oeste 55 Oeste 0 -- -- 74
2019-01-28 22:00:00 7.2 29 Oeste 45 Oeste 0 -- -- 74
2019-01-28 21:00:00 7.1 23 Oeste 42 Oeste 0 -- -- 75
2019-01-28 20:00:00 7.1 22 Oeste 44 Noroeste 0 -- -- 74
2019-01-28 19:00:00 7.8 32 Oeste 62 Oeste 0 -- -- 70
2019-01-28 18:00:00 8.7 33 Oeste 69 Oeste 0 -- -- 67
2019-01-28 17:00:00 10.5 33 Noroeste 68 Oeste 0 -- -- 59
2019-01-28 16:00:00 10.8 42 Oeste 69 Oeste 0 -- -- 61
2019-01-28 15:00:00 11 42 Oeste 78 Oeste 0 -- -- 60
2019-01-28 14:00:00 11.2 46 Oeste 71 Oeste 0 -- -- 61
2019-01-28 13:00:00 10.5 43 Oeste 69 Oeste 0 -- -- 68
2019-01-28 12:00:00 10 37 Oeste 64 Oeste 0 -- -- 70
2019-01-28 11:00:00 8.1 34 Oeste 63 Oeste 0 -- -- 78
2019-01-28 10:00:00 6.8 25 Oeste 42 Oeste 0 -- -- 80
2019-01-28 09:00:00 5.7 21 Oeste 48 Oeste 0 -- -- 75
2019-01-28 08:00:00 5.5 23 Oeste 37 Oeste 0 -- -- 75
2019-01-28 07:00:00 4.8 13 Oeste 28 Oeste 0 -- -- 83
2019-01-28 06:00:00 4.1 16 Oeste 36 Oeste 0 -- -- 85
2019-01-28 05:00:00 4.4 22 Oeste 46 Oeste 0 -- -- 82
2019-01-28 04:00:00 4.7 17 Oeste 41 Oeste 0 -- -- 79
2019-01-28 03:00:00 5.1 26 Oeste 50 Oeste 0 -- -- 79
2019-01-28 02:00:00 5.1 28 Oeste 53 Oeste 0 -- -- 79
2019-01-28 01:00:00 5.3 28 Oeste 54 Oeste 0 -- -- 77
2019-01-28 00:00:00 5.4 30 Oeste 59 Oeste 0 -- -- 75
2019-01-27 23:00:00 5.8 26 Oeste 44 Oeste 0 -- -- 73
2019-01-27 22:00:00 5.7 28 Oeste 53 Oeste 0 -- -- 72
2019-01-27 21:00:00 5.9 22 Oeste 52 Oeste 0 -- -- 71
2019-01-27 20:00:00 6.4 28 Oeste 55 Oeste 0 -- -- 66
2019-01-27 19:00:00 6.7 31 Oeste 55 Oeste 0 -- -- 63
2019-01-27 18:00:00 7.6 31 Oeste 57 Oeste 0 -- -- 62
2019-01-27 17:00:00 8.8 33 Oeste 66 Oeste 0 -- -- 65
2019-01-27 16:00:00 10.1 42 Oeste 72 Oeste 0 -- -- 56
2019-01-27 15:00:00 10.1 32 Noroeste 67 Oeste 0 -- -- 57
2019-01-27 14:00:00 11.7 44 Oeste 66 Oeste 0 -- -- 49
2019-01-27 13:00:00 10.9 33 Oeste 62 Oeste 0 -- -- 56
2019-01-27 12:00:00 10.8 40 Oeste 60 Oeste 0 -- -- 57
2019-01-27 11:00:00 10 26 Oeste 52 Oeste 0 -- -- 66
2019-01-27 10:00:00 8.7 25 Oeste 42 Oeste 0 -- -- 74
2019-01-27 09:00:00 5.5 10 Oeste 21 Oeste 0 -- -- 87
2019-01-27 08:00:00 4.7 13 Oeste 20 Noroeste 0 -- -- 88
2019-01-27 07:00:00 4.5 9 Noroeste 20 Noroeste 0 -- -- 89
2019-01-27 06:00:00 4.9 12 Noroeste 19 Oeste 0 -- -- 88
2019-01-27 05:00:00 4.4 10 Noroeste 16 Noroeste 0 -- -- 90
2019-01-27 04:00:00 4.7 5 Noroeste 14 Oeste 0 -- -- 89
2019-01-27 03:00:00 5 10 Noroeste 15 Oeste 0 -- -- 91
2019-01-27 02:00:00 4.1 4 Noroeste 8 Noroeste 0 -- -- 90
2019-01-27 01:00:00 3.7 3 Norte 9 Norte 0 -- -- 90
2019-01-27 00:00:00 3.6 0 Calma 6 Norte 0 -- -- 88
2019-01-26 23:00:00 4.2 4 Norte 8 Noroeste 0 -- -- 86
2019-01-26 22:00:00 5.5 3 Oeste 9 Noroeste 0 -- -- 82
2019-01-26 21:00:00 6.3 3 Norte 9 Oeste 0 -- -- 80
2019-01-26 20:00:00 8.1 3 Noroeste 10 Noroeste 0 -- -- 73
2019-01-26 19:00:00 10.1 6 Oeste 10 Oeste 0 -- -- 66
2019-01-26 18:00:00 13.1 5 Oeste 14 Oeste 0 -- -- 57
2019-01-26 17:00:00 15.1 8 Oeste 16 Sudoeste 0 -- -- 52
2019-01-26 16:00:00 15.3 11 Oeste 19 Oeste 0 -- -- 51
2019-01-26 15:00:00 14.4 10 Noroeste 25 Noroeste 0 -- -- 56
2019-01-26 14:00:00 13.9 13 Oeste 28 Oeste 0 -- -- 57
2019-01-26 13:00:00 12.9 16 Oeste 30 Oeste 0 -- -- 60
2019-01-26 12:00:00 11.9 17 Oeste 32 Oeste 0 -- -- 65
2019-01-26 11:00:00 10.4 11 Noroeste 19 Oeste 0 -- -- 75
2019-01-26 10:00:00 7.9 0 Calma 11 Norte 0 -- -- 86
2019-01-26 09:00:00 5.7 6 Noroeste 18 Noroeste 0 -- -- 91
2019-01-26 08:00:00 5.4 7 Noroeste 17 Noroeste 0 -- -- 90
2019-01-26 07:00:00 5.9 8 Noroeste 19 Oeste 0 -- -- 87
2019-01-26 06:00:00 6.3 10 Oeste 16 Noroeste 0 -- -- 86
2019-01-26 05:00:00 6.7 2 Noroeste 26 Oeste 0 -- -- 84
2019-01-26 04:00:00 7.9 16 Oeste 29 Oeste 0 -- -- 82
2019-01-26 03:00:00 8.3 13 Oeste 33 Oeste 0 -- -- 80
2019-01-26 02:00:00 8.8 23 Oeste 41 Oeste 0 -- -- 78
2019-01-26 01:00:00 8.8 21 Oeste 39 Oeste 0 -- -- 78
2019-01-26 00:00:00 8.9 22 Oeste 41 Noroeste 0 -- -- 78
2019-01-25 23:00:00 9.2 21 Oeste 40 Oeste 0 -- -- 77
2019-01-25 22:00:00 9.5 30 Oeste 50 Oeste 0 -- -- 75
2019-01-25 21:00:00 10 30 Oeste 51 Oeste 0 -- -- 72
2019-01-25 20:00:00 10.6 28 Oeste 59 Oeste 0 -- -- 69
2019-01-25 19:00:00 11.3 34 Oeste 58 Oeste 0 -- -- 66
2019-01-25 18:00:00 12.8 26 Oeste 69 Oeste 0 -- -- 60
2019-01-25 17:00:00 15.1 45 Oeste 65 Oeste 0 -- -- 49
2019-01-25 16:00:00 16.2 32 Oeste 59 Oeste 0 -- -- 47
2019-01-25 15:00:00 16.6 31 Oeste 62 Oeste 0 -- -- 46
2019-01-25 14:00:00 16.2 29 Oeste 57 Oeste 0 -- -- 48
2019-01-25 13:00:00 15.5 30 Oeste 60 Noroeste 0 -- -- 52
2019-01-25 12:00:00 14.2 33 Oeste 60 Oeste 0 -- -- 58
2019-01-25 11:00:00 12.8 23 Oeste 53 Oeste 0 -- -- 60
2019-01-25 10:00:00 11.2 26 Oeste 45 Oeste 0 -- -- 64
2019-01-25 09:00:00 9.8 27 Oeste 48 Oeste 0 -- -- 68
2019-01-25 08:00:00 8.4 19 Oeste 36 Oeste 0 -- -- 75
2019-01-25 07:00:00 7.8 25 Oeste 45 Oeste 0 -- -- 78
2019-01-25 06:00:00 7.4 25 Oeste 40 Oeste 0 -- -- 77
2019-01-25 05:00:00 6.8 21 Oeste 40 Oeste 0 -- -- 73
2019-01-25 04:00:00 5.9 20 Oeste 33 Oeste 0 -- -- 71
2019-01-25 03:00:00 4.2 6 Noroeste 14 Oeste 0 -- -- 74
2019-01-25 02:00:00 3 3 Sur 8 Sur 0 -- -- 70
2019-01-25 01:00:00 3.2 3 Este 17 Oeste 0 -- -- 68
2019-01-25 00:00:00 4.4 9 Noroeste 26 Noroeste 0 -- -- 63
2019-01-24 23:00:00 4.4 13 Noroeste 27 Noroeste 0 -- -- 62
2019-01-24 22:00:00 3.9 8 Noroeste 18 Noroeste 0 -- -- 61
2019-01-24 21:00:00 4.7 9 Noroeste 22 Oeste 0 -- -- 51
2019-01-24 20:00:00 5 14 Oeste 30 Oeste 0 -- -- 49
2019-01-24 19:00:00 6 17 Noroeste 35 Oeste 0 -- -- 42
2019-01-24 18:00:00 7.4 22 Oeste 40 Oeste 0 -- -- 37
2019-01-24 17:00:00 8.9 26 Oeste 49 Noroeste 0 -- -- 35
2019-01-24 16:00:00 9.3 30 Noroeste 50 Norte 0 -- -- 33
2019-01-24 15:00:00 9.5 30 Noroeste 49 Oeste 0 -- -- 31
2019-01-24 14:00:00 9.1 26 Noroeste 44 Oeste 0 -- -- 30
2019-01-24 13:00:00 8.3 28 Oeste 53 Oeste 0 -- -- 32
2019-01-24 12:00:00 7.4 25 Noroeste 48 Oeste 0 -- -- 36
2019-01-24 11:00:00 6 31 Oeste 50 Oeste 0 -- -- 41
2019-01-24 10:00:00 4.7 30 Noroeste 48 Oeste 0 -- -- 46
2019-01-24 09:00:00 3.7 23 Noroeste 46 Oeste 0 -- -- 52
2019-01-24 08:00:00 3.6 28 Oeste 47 Oeste 0 -- -- 53
2019-01-24 07:00:00 3.8 26 Oeste 46 Oeste 0 -- -- 66
2019-01-24 06:00:00 4.2 22 Oeste 43 Oeste 0 -- -- 70
2019-01-24 05:00:00 4.3 24 Oeste 43 Noroeste 0 -- -- 78
2019-01-24 04:00:00 4.6 27 Noroeste 49 Oeste 0 -- -- 77
2019-01-24 03:00:00 5 28 Oeste 50 Noroeste 0 -- -- 76
2019-01-24 02:00:00 5.1 29 Oeste 60 Oeste 0 -- -- 77
2019-01-24 01:00:00 5.6 31 Oeste 61 Oeste 0 -- -- 73
2019-01-24 00:00:00 5.6 26 Oeste 56 Oeste 0 -- -- 79